sensor_id;sensor_type;location;lat;lon;timestamp;pressure;altitude;pressure_sealevel;temperature;humidity
36598;BME280;22607;49.550;11.940;2023-03-01T00:01:06;97747.69;;;-1.46;83.58
36598;BME280;22607;49.550;11.940;2023-03-01T00:03:33;97742.59;;;-1.47;83.89
36598;BME280;22607;49.550;11.940;2023-03-01T00:06:00;97749.16;;;-1.40;83.66
36598;BME280;22607;49.550;11.940;2023-03-01T00:08:28;97748.53;;;-1.45;84.08
36598;BME280;22607;49.550;11.940;2023-03-01T00:13:41;97750.78;;;-1.56;84.03
36598;BME280;22607;49.550;11.940;2023-03-01T00:16:19;97757.44;;;-1.70;85.45
36598;BME280;22607;49.550;11.940;2023-03-01T00:18:46;97746.44;;;-1.74;86.14
36598;BME280;22607;49.550;11.940;2023-03-01T00:21:13;97759.25;;;-1.72;86.23
36598;BME280;22607;49.550;11.940;2023-03-01T00:23:40;97759.31;;;-1.74;86.39
36598;BME280;22607;49.550;11.940;2023-03-01T00:26:10;97755.63;;;-1.68;86.40
36598;BME280;22607;49.550;11.940;2023-03-01T00:28:37;97749.47;;;-1.65;86.31
36598;BME280;22607;49.550;11.940;2023-03-01T00:31:18;97749.34;;;-1.62;86.23
36598;BME280;22607;49.550;11.940;2023-03-01T00:33:45;97748.44;;;-1.61;85.71
36598;BME280;22607;49.550;11.940;2023-03-01T00:36:14;97736.09;;;-1.54;85.60
36598;BME280;22607;49.550;11.940;2023-03-01T00:38:44;97733.97;;;-1.64;85.17
36598;BME280;22607;49.550;11.940;2023-03-01T00:41:13;97726.53;;;-1.70;85.44
36598;BME280;22607;49.550;11.940;2023-03-01T00:43:41;97734.56;;;-1.59;85.15
36598;BME280;22607;49.550;11.940;2023-03-01T00:46:10;97728.81;;;-1.64;85.55
36598;BME280;22607;49.550;11.940;2023-03-01T00:48:38;97728.41;;;-1.74;86.03
36598;BME280;22607;49.550;11.940;2023-03-01T00:51:10;97732.47;;;-1.87;86.16
36598;BME280;22607;49.550;11.940;2023-03-01T00:53:37;97723.78;;;-1.67;85.66
36598;BME280;22607;49.550;11.940;2023-03-01T00:56:06;97719.25;;;-1.79;85.79
36598;BME280;22607;49.550;11.940;2023-03-01T00:58:34;97721.88;;;-1.81;86.65
36598;BME280;22607;49.550;11.940;2023-03-01T01:01:08;97713.38;;;-1.83;85.48
36598;BME280;22607;49.550;11.940;2023-03-01T01:03:47;97721.34;;;-1.88;86.25
36598;BME280;22607;49.550;11.940;2023-03-01T01:06:19;97712.72;;;-1.87;86.25
36598;BME280;22607;49.550;11.940;2023-03-01T01:08:47;97715.94;;;-2.01;86.83
36598;BME280;22607;49.550;11.940;2023-03-01T01:11:14;97716.31;;;-1.91;85.08
36598;BME280;22607;49.550;11.940;2023-03-01T01:13:44;97707.50;;;-1.85;84.97
36598;BME280;22607;49.550;11.940;2023-03-01T01:16:11;97697.94;;;-1.83;84.52
36598;BME280;22607;49.550;11.940;2023-03-01T01:18:38;97700.69;;;-1.86;85.22
36598;BME280;22607;49.550;11.940;2023-03-01T01:21:06;97696.47;;;-2.06;86.00
36598;BME280;22607;49.550;11.940;2023-03-01T01:23:33;97698.97;;;-2.05;85.63
36598;BME280;22607;49.550;11.940;2023-03-01T01:26:05;97699.03;;;-2.06;85.89
36598;BME280;22607;49.550;11.940;2023-03-01T01:28:31;97691.06;;;-2.02;85.66
36598;BME280;22607;49.550;11.940;2023-03-01T01:31:00;97691.00;;;-2.00;86.21
36598;BME280;22607;49.550;11.940;2023-03-01T01:33:27;97696.47;;;-2.06;86.42
36598;BME280;22607;49.550;11.940;2023-03-01T01:35:53;97692.84;;;-2.02;85.67
36598;BME280;22607;49.550;11.940;2023-03-01T01:38:21;97693.25;;;-2.12;86.93
36598;BME280;22607;49.550;11.940;2023-03-01T01:40:49;97687.75;;;-2.04;86.24
36598;BME280;22607;49.550;11.940;2023-03-01T01:43:35;97683.22;;;-2.18;86.95
36598;BME280;22607;49.550;11.940;2023-03-01T01:46:32;97679.56;;;-2.12;86.45
36598;BME280;22607;49.550;11.940;2023-03-01T01:49:04;97680.34;;;-2.29;88.03
36598;BME280;22607;49.550;11.940;2023-03-01T01:51:37;97677.47;;;-2.23;88.47
36598;BME280;22607;49.550;11.940;2023-03-01T01:54:12;97664.06;;;-2.30;87.71
36598;BME280;22607;49.550;11.940;2023-03-01T01:56:42;97665.50;;;-2.24;88.16
36598;BME280;22607;49.550;11.940;2023-03-01T01:59:11;97658.63;;;-2.23;87.72
36598;BME280;22607;49.550;11.940;2023-03-01T02:01:38;97658.34;;;-2.37;88.08
36598;BME280;22607;49.550;11.940;2023-03-01T02:04:08;97654.25;;;-2.41;88.94
36598;BME280;22607;49.550;11.940;2023-03-01T02:06:39;97657.97;;;-2.46;88.92
36598;BME280;22607;49.550;11.940;2023-03-01T02:09:12;97653.72;;;-2.47;88.98
36598;BME280;22607;49.550;11.940;2023-03-01T02:11:41;97643.88;;;-2.39;88.25
36598;BME280;22607;49.550;11.940;2023-03-01T02:14:07;97645.91;;;-2.46;89.02
36598;BME280;22607;49.550;11.940;2023-03-01T02:16:35;97650.31;;;-2.48;88.29
36598;BME280;22607;49.550;11.940;2023-03-01T02:19:03;97651.34;;;-2.52;89.44
36598;BME280;22607;49.550;11.940;2023-03-01T02:21:53;97648.78;;;-2.52;90.41
36598;BME280;22607;49.550;11.940;2023-03-01T02:30:19;97643.06;;;-2.40;88.92
36598;BME280;22607;49.550;11.940;2023-03-01T02:32:47;97644.13;;;-2.44;87.91
36598;BME280;22607;49.550;11.940;2023-03-01T02:35:16;97635.50;;;-2.43;88.23
36598;BME280;22607;49.550;11.940;2023-03-01T02:37:44;97627.75;;;-2.43;87.65
36598;BME280;22607;49.550;11.940;2023-03-01T02:40:14;97623.13;;;-2.54;88.72
36598;BME280;22607;49.550;11.940;2023-03-01T02:42:49;97617.78;;;-2.49;88.46
36598;BME280;22607;49.550;11.940;2023-03-01T02:45:17;97608.91;;;-2.43;88.97
36598;BME280;22607;49.550;11.940;2023-03-01T02:47:44;97614.28;;;-2.48;88.50
36598;BME280;22607;49.550;11.940;2023-03-01T02:55:27;97616.50;;;-2.59;89.43
36598;BME280;22607;49.550;11.940;2023-03-01T02:57:55;97609.34;;;-2.53;89.58
36598;BME280;22607;49.550;11.940;2023-03-01T03:00:34;97611.34;;;-2.40;88.32
36598;BME280;22607;49.550;11.940;2023-03-01T03:03:02;97600.81;;;-2.53;88.55
36598;BME280;22607;49.550;11.940;2023-03-01T03:05:32;97598.97;;;-2.51;88.40
36598;BME280;22607;49.550;11.940;2023-03-01T03:08:01;97604.25;;;-2.35;87.00
36598;BME280;22607;49.550;11.940;2023-03-01T03:10:31;97588.56;;;-2.48;88.21
36598;BME280;22607;49.550;11.940;2023-03-01T03:13:04;97598.31;;;-2.55;87.64
36598;BME280;22607;49.550;11.940;2023-03-01T03:15:31;97594.56;;;-2.67;88.96
36598;BME280;22607;49.550;11.940;2023-03-01T03:17:58;97602.13;;;-2.64;89.45
36598;BME280;22607;49.550;11.940;2023-03-01T03:20:29;97588.84;;;-2.54;89.38
36598;BME280;22607;49.550;11.940;2023-03-01T03:22:57;97590.22;;;-2.47;88.86
36598;BME280;22607;49.550;11.940;2023-03-01T03:25:31;97590.34;;;-2.50;88.77
36598;BME280;22607;49.550;11.940;2023-03-01T03:27:58;97595.22;;;-2.44;87.74
36598;BME280;22607;49.550;11.940;2023-03-01T03:30:31;97596.69;;;-2.38;87.39
36598;BME280;22607;49.550;11.940;2023-03-01T03:32:59;97602.28;;;-2.47;86.83
36598;BME280;22607;49.550;11.940;2023-03-01T03:35:49;97592.94;;;-2.50;87.36
36598;BME280;22607;49.550;11.940;2023-03-01T03:38:15;97594.88;;;-2.55;87.81
36598;BME280;22607;49.550;11.940;2023-03-01T03:40:44;97600.31;;;-2.42;87.60
36598;BME280;22607;49.550;11.940;2023-03-01T03:43:20;97593.28;;;-2.58;87.61
36598;BME280;22607;49.550;11.940;2023-03-01T03:45:48;97594.00;;;-2.54;88.35
36598;BME280;22607;49.550;11.940;2023-03-01T03:48:16;97589.59;;;-2.52;88.46
36598;BME280;22607;49.550;11.940;2023-03-01T03:50:47;97588.84;;;-2.54;88.03
36598;BME280;22607;49.550;11.940;2023-03-01T03:53:15;97579.31;;;-2.52;87.79
36598;BME280;22607;49.550;11.940;2023-03-01T03:55:42;97574.47;;;-2.41;86.30
36598;BME280;22607;49.550;11.940;2023-03-01T03:58:09;97582.06;;;-2.38;86.50
36598;BME280;22607;49.550;11.940;2023-03-01T04:00:40;97584.94;;;-2.44;86.65
36598;BME280;22607;49.550;11.940;2023-03-01T04:03:09;97587.66;;;-2.47;86.87
36598;BME280;22607;49.550;11.940;2023-03-01T04:05:37;97583.28;;;-2.64;87.83
36598;BME280;22607;49.550;11.940;2023-03-01T04:08:04;97595.16;;;-2.81;90.50
36598;BME280;22607;49.550;11.940;2023-03-01T04:10:39;97588.72;;;-2.70;90.90
36598;BME280;22607;49.550;11.940;2023-03-01T04:13:11;97585.38;;;-2.72;89.89
36598;BME280;22607;49.550;11.940;2023-03-01T04:15:39;97594.28;;;-2.80;89.38
36598;BME280;22607;49.550;11.940;2023-03-01T04:18:15;97594.16;;;-2.96;91.13
36598;BME280;22607;49.550;11.940;2023-03-01T04:20:42;97575.66;;;-3.04;91.34
36598;BME280;22607;49.550;11.940;2023-03-01T04:23:13;97598.25;;;-2.92;90.32
36598;BME280;22607;49.550;11.940;2023-03-01T04:25:53;97595.38;;;-3.05;92.30
36598;BME280;22607;49.550;11.940;2023-03-01T04:28:28;97590.34;;;-3.27;94.45
36598;BME280;22607;49.550;11.940;2023-03-01T04:30:56;97592.41;;;-3.14;94.71
36598;BME280;22607;49.550;11.940;2023-03-01T04:33:24;97580.16;;;-3.09;94.41
36598;BME280;22607;49.550;11.940;2023-03-01T04:35:51;97588.78;;;-3.10;93.83
36598;BME280;22607;49.550;11.940;2023-03-01T04:38:19;97588.22;;;-2.98;94.02
36598;BME280;22607;49.550;11.940;2023-03-01T04:40:46;97593.44;;;-2.99;92.94
36598;BME280;22607;49.550;11.940;2023-03-01T04:43:13;97592.81;;;-3.05;93.71
36598;BME280;22607;49.550;11.940;2023-03-01T04:45:41;97586.34;;;-3.13;94.27
36598;BME280;22607;49.550;11.940;2023-03-01T04:48:07;97582.75;;;-3.09;94.28
36598;BME280;22607;49.550;11.940;2023-03-01T04:50:34;97583.44;;;-3.06;94.34
36598;BME280;22607;49.550;11.940;2023-03-01T04:53:01;97586.50;;;-2.97;93.22
36598;BME280;22607;49.550;11.940;2023-03-01T04:55:28;97582.88;;;-2.93;93.02
36598;BME280;22607;49.550;11.940;2023-03-01T04:57:55;97578.50;;;-2.91;93.41
36598;BME280;22607;49.550;11.940;2023-03-01T05:00:22;97575.63;;;-2.85;92.61
36598;BME280;22607;49.550;11.940;2023-03-01T05:02:59;97582.88;;;-2.93;93.00
36598;BME280;22607;49.550;11.940;2023-03-01T05:05:37;97587.75;;;-2.87;92.63
36598;BME280;22607;49.550;11.940;2023-03-01T05:08:07;97588.50;;;-2.85;92.29
36598;BME280;22607;49.550;11.940;2023-03-01T05:10:35;97591.91;;;-2.84;91.79
36598;BME280;22607;49.550;11.940;2023-03-01T05:13:03;97595.41;;;-2.85;91.56
36598;BME280;22607;49.550;11.940;2023-03-01T05:15:31;97585.53;;;-2.95;93.37
36598;BME280;22607;49.550;11.940;2023-03-01T05:17:59;97584.28;;;-3.05;92.75
36598;BME280;22607;49.550;11.940;2023-03-01T05:20:27;97578.72;;;-2.96;92.82
36598;BME280;22607;49.550;11.940;2023-03-01T05:22:58;97574.56;;;-2.98;93.26
36598;BME280;22607;49.550;11.940;2023-03-01T05:25:26;97574.41;;;-2.95;92.88
36598;BME280;22607;49.550;11.940;2023-03-01T05:27:52;97570.22;;;-2.98;93.02
36598;BME280;22607;49.550;11.940;2023-03-01T05:30:19;97575.94;;;-2.91;91.75
36598;BME280;22607;49.550;11.940;2023-03-01T05:32:48;97575.25;;;-2.95;92.42
36598;BME280;22607;49.550;11.940;2023-03-01T05:35:16;97572.81;;;-2.98;92.50
36598;BME280;22607;49.550;11.940;2023-03-01T05:37:45;97572.06;;;-3.00;93.15
36598;BME280;22607;49.550;11.940;2023-03-01T05:40:15;97582.34;;;-3.00;93.82
36598;BME280;22607;49.550;11.940;2023-03-01T05:42:44;97584.91;;;-3.00;93.75
36598;BME280;22607;49.550;11.940;2023-03-01T05:45:12;97577.31;;;-3.03;93.29
36598;BME280;22607;49.550;11.940;2023-03-01T05:47:40;97584.91;;;-3.00;93.32
36598;BME280;22607;49.550;11.940;2023-03-01T05:50:12;97577.72;;;-3.12;92.61
36598;BME280;22607;49.550;11.940;2023-03-01T05:52:39;97582.19;;;-3.16;93.55
36598;BME280;22607;49.550;11.940;2023-03-01T05:55:06;97576.63;;;-3.07;92.85
36598;BME280;22607;49.550;11.940;2023-03-01T05:57:33;97568.13;;;-3.09;92.61
36598;BME280;22607;49.550;11.940;2023-03-01T05:59:59;97566.75;;;-3.16;92.96
36598;BME280;22607;49.550;11.940;2023-03-01T06:02:27;97571.44;;;-3.05;93.07
36598;BME280;22607;49.550;11.940;2023-03-01T06:04:53;97566.00;;;-2.99;93.99
36598;BME280;22607;49.550;11.940;2023-03-01T06:07:20;97560.09;;;-3.01;93.25
36598;BME280;22607;49.550;11.940;2023-03-01T06:09:46;97563.13;;;-2.93;92.76
36598;BME280;22607;49.550;11.940;2023-03-01T06:12:13;97557.13;;;-2.92;93.10
36598;BME280;22607;49.550;11.940;2023-03-01T06:14:40;97555.16;;;-2.86;92.56
36598;BME280;22607;49.550;11.940;2023-03-01T06:17:06;97550.34;;;-2.75;91.23
36598;BME280;22607;49.550;11.940;2023-03-01T06:19:33;97558.72;;;-2.89;92.35
36598;BME280;22607;49.550;11.940;2023-03-01T06:21:59;97552.56;;;-2.67;91.70
36598;BME280;22607;49.550;11.940;2023-03-01T06:24:26;97546.44;;;-2.65;91.31
36598;BME280;22607;49.550;11.940;2023-03-01T06:26:55;97550.84;;;-2.67;92.04
36598;BME280;22607;49.550;11.940;2023-03-01T06:29:22;97551.44;;;-2.42;90.61
36598;BME280;22607;49.550;11.940;2023-03-01T06:31:48;97555.44;;;-2.37;89.06
36598;BME280;22607;49.550;11.940;2023-03-01T06:34:15;97551.69;;;-2.12;89.59
36598;BME280;22607;49.550;11.940;2023-03-01T06:36:41;97560.63;;;-1.83;86.34
36598;BME280;22607;49.550;11.940;2023-03-01T06:39:08;97559.09;;;-1.70;84.90
36598;BME280;22607;49.550;11.940;2023-03-01T06:41:35;97557.47;;;-1.55;83.42
36598;BME280;22607;49.550;11.940;2023-03-01T06:44:01;97559.22;;;-1.22;81.44
36598;BME280;22607;49.550;11.940;2023-03-01T06:46:29;97565.31;;;-1.07;80.65
36598;BME280;22607;49.550;11.940;2023-03-01T06:48:57;97558.75;;;-0.96;79.04
36598;BME280;22607;49.550;11.940;2023-03-01T06:51:23;97556.94;;;-0.78;78.92
36598;BME280;22607;49.550;11.940;2023-03-01T06:53:51;97550.28;;;-0.66;78.08
36598;BME280;22607;49.550;11.940;2023-03-01T06:56:17;97558.59;;;-0.45;77.21
36598;BME280;22607;49.550;11.940;2023-03-01T06:58:44;97542.84;;;-0.09;73.59
36598;BME280;22607;49.550;11.940;2023-03-01T07:01:10;97532.06;;;0.15;71.41
36598;BME280;22607;49.550;11.940;2023-03-01T07:03:39;97540.13;;;0.68;69.32
36598;BME280;22607;49.550;11.940;2023-03-01T07:06:05;97529.06;;;1.50;67.33
36598;BME280;22607;49.550;11.940;2023-03-01T07:08:32;97526.16;;;2.23;65.54
36598;BME280;22607;49.550;11.940;2023-03-01T07:10:58;97526.50;;;2.95;63.34
36598;BME280;22607;49.550;11.940;2023-03-01T07:13:25;97522.28;;;2.81;60.88
36598;BME280;22607;49.550;11.940;2023-03-01T07:15:51;97517.19;;;2.79;60.15
36598;BME280;22607;49.550;11.940;2023-03-01T07:18:18;97517.19;;;3.54;59.72
36598;BME280;22607;49.550;11.940;2023-03-01T07:20:44;97509.63;;;3.51;56.98
36598;BME280;22607;49.550;11.940;2023-03-01T07:23:11;97496.19;;;3.93;56.46
36598;BME280;22607;49.550;11.940;2023-03-01T07:25:39;97502.09;;;4.42;56.65
36598;BME280;22607;49.550;11.940;2023-03-01T07:28:06;97500.03;;;4.12;56.77
36598;BME280;22607;49.550;11.940;2023-03-01T07:30:32;97503.44;;;4.01;56.76
36598;BME280;22607;49.550;11.940;2023-03-01T07:32:59;97495.88;;;4.09;57.70
36598;BME280;22607;49.550;11.940;2023-03-01T07:35:28;97493.81;;;4.49;55.59
36598;BME280;22607;49.550;11.940;2023-03-01T07:37:54;97489.06;;;4.42;54.17
36598;BME280;22607;49.550;11.940;2023-03-01T07:40:21;97495.94;;;4.55;53.86
36598;BME280;22607;49.550;11.940;2023-03-01T07:42:47;97491.78;;;4.52;53.78
36598;BME280;22607;49.550;11.940;2023-03-01T07:45:14;97496.06;;;4.65;53.20
36598;BME280;22607;49.550;11.940;2023-03-01T07:47:40;97496.66;;;4.80;54.12
36598;BME280;22607;49.550;11.940;2023-03-01T07:50:08;97496.75;;;4.90;54.36
36598;BME280;22607;49.550;11.940;2023-03-01T07:52:35;97500.34;;;5.33;52.01
36598;BME280;22607;49.550;11.940;2023-03-01T07:55:02;97490.97;;;6.07;51.50
36598;BME280;22607;49.550;11.940;2023-03-01T07:57:28;97490.25;;;6.05;51.22
36598;BME280;22607;49.550;11.940;2023-03-01T07:59:57;97493.34;;;5.77;50.13
36598;BME280;22607;49.550;11.940;2023-03-01T08:02:23;97484.94;;;4.74;50.76
36598;BME280;22607;49.550;11.940;2023-03-01T08:04:51;97487.88;;;5.04;51.89
36598;BME280;22607;49.550;11.940;2023-03-01T08:07:17;97488.59;;;4.83;51.48
36598;BME280;22607;49.550;11.940;2023-03-01T08:09:44;97499.34;;;4.90;51.60
36598;BME280;22607;49.550;11.940;2023-03-01T08:12:11;97487.41;;;4.98;51.07
36598;BME280;22607;49.550;11.940;2023-03-01T08:14:37;97480.00;;;5.27;50.95
36598;BME280;22607;49.550;11.940;2023-03-01T08:17:04;97474.97;;;5.46;50.19
36598;BME280;22607;49.550;11.940;2023-03-01T08:19:31;97478.81;;;5.31;51.04
36598;BME280;22607;49.550;11.940;2023-03-01T08:21:59;97473.38;;;5.22;49.49
36598;BME280;22607;49.550;11.940;2023-03-01T08:24:26;97457.84;;;4.88;51.61
36598;BME280;22607;49.550;11.940;2023-03-01T08:26:53;97465.06;;;4.50;51.71
36598;BME280;22607;49.550;11.940;2023-03-01T08:29:19;97469.63;;;5.04;50.83
36598;BME280;22607;49.550;11.940;2023-03-01T08:31:46;97473.16;;;5.25;50.83
36598;BME280;22607;49.550;11.940;2023-03-01T08:34:15;97464.38;;;5.27;49.99
36598;BME280;22607;49.550;11.940;2023-03-01T08:36:45;97465.09;;;5.61;50.08
36598;BME280;22607;49.550;11.940;2023-03-01T08:39:14;97457.25;;;5.29;50.25
36598;BME280;22607;49.550;11.940;2023-03-01T08:41:41;97462.19;;;5.43;49.99
36598;BME280;22607;49.550;11.940;2023-03-01T08:44:11;97456.56;;;5.59;49.80
36598;BME280;22607;49.550;11.940;2023-03-01T08:46:40;97467.59;;;5.51;49.60
36598;BME280;22607;49.550;11.940;2023-03-01T08:49:11;97457.41;;;5.48;50.29
36598;BME280;22607;49.550;11.940;2023-03-01T08:51:38;97464.38;;;5.27;49.85
36598;BME280;22607;49.550;11.940;2023-03-01T08:54:07;97452.53;;;5.55;49.62
36598;BME280;22607;49.550;11.940;2023-03-01T08:56:36;97455.75;;;5.80;49.40
36598;BME280;22607;49.550;11.940;2023-03-01T08:59:03;97445.09;;;6.04;48.80
36598;BME280;22607;49.550;11.940;2023-03-01T09:01:30;97451.31;;;5.38;49.56
36598;BME280;22607;49.550;11.940;2023-03-01T09:03:57;97440.44;;;5.87;49.10
36598;BME280;22607;49.550;11.940;2023-03-01T09:06:23;97447.22;;;6.21;47.92
36598;BME280;22607;49.550;11.940;2023-03-01T09:08:50;97447.38;;;6.50;47.92
36598;BME280;22607;49.550;11.940;2023-03-01T09:11:20;97446.81;;;6.78;46.99
36598;BME280;22607;49.550;11.940;2023-03-01T09:13:47;97441.91;;;6.53;46.05
36598;BME280;22607;49.550;11.940;2023-03-01T09:16:17;97437.38;;;6.24;47.11
36598;BME280;22607;49.550;11.940;2023-03-01T09:18:48;97446.59;;;6.60;46.24
36598;BME280;22607;49.550;11.940;2023-03-01T09:21:16;97436.06;;;6.40;46.26
36598;BME280;22607;49.550;11.940;2023-03-01T09:23:50;97438.06;;;6.57;46.21
36598;BME280;22607;49.550;11.940;2023-03-01T09:26:19;97434.31;;;6.50;45.76
36598;BME280;22607;49.550;11.940;2023-03-01T09:28:48;97438.00;;;6.38;46.25
36598;BME280;22607;49.550;11.940;2023-03-01T09:31:17;97429.94;;;7.02;46.86
36598;BME280;22607;49.550;11.940;2023-03-01T09:33:47;97427.34;;;7.02;45.65
36598;BME280;22607;49.550;11.940;2023-03-01T09:36:16;97418.59;;;6.72;44.97
36598;BME280;22607;49.550;11.940;2023-03-01T09:38:43;97406.47;;;6.51;45.68
36598;BME280;22607;49.550;11.940;2023-03-01T09:44:16;97413.06;;;6.65;45.37
36598;BME280;22607;49.550;11.940;2023-03-01T09:46:45;97411.59;;;6.72;45.49
36598;BME280;22607;49.550;11.940;2023-03-01T09:49:18;97419.06;;;6.87;45.66
36598;BME280;22607;49.550;11.940;2023-03-01T09:52:29;97413.94;;;6.75;45.20
36598;BME280;22607;49.550;11.940;2023-03-01T09:54:55;97415.75;;;6.85;45.09
36598;BME280;22607;49.550;11.940;2023-03-01T09:57:38;97411.31;;;6.65;45.38
36598;BME280;22607;49.550;11.940;2023-03-01T10:00:30;97421.16;;;7.52;46.11
36598;BME280;22607;49.550;11.940;2023-03-01T10:03:09;97410.56;;;7.44;43.77
36598;BME280;22607;49.550;11.940;2023-03-01T10:06:30;97400.25;;;7.52;44.24
36598;BME280;22607;49.550;11.940;2023-03-01T10:08:53;97409.88;;;7.61;44.54
36598;BME280;22607;49.550;11.940;2023-03-01T10:11:28;97412.78;;;7.48;43.86
36598;BME280;22607;49.550;11.940;2023-03-01T10:14:03;97407.66;;;7.67;44.99
36598;BME280;22607;49.550;11.940;2023-03-01T10:16:50;97395.41;;;7.87;43.87
36598;BME280;22607;49.550;11.940;2023-03-01T10:19:30;97399.69;;;7.78;44.53
36598;BME280;22607;49.550;11.940;2023-03-01T10:22:04;97397.25;;;7.57;44.36
36598;BME280;22607;49.550;11.940;2023-03-01T10:24:35;97396.97;;;7.01;44.56
36598;BME280;22607;49.550;11.940;2023-03-01T10:27:11;97399.13;;;6.95;45.39
36598;BME280;22607;49.550;11.940;2023-03-01T10:30:13;97388.44;;;7.08;45.63
36598;BME280;22607;49.550;11.940;2023-03-01T10:32:47;97391.56;;;7.02;45.80
36598;BME280;22607;49.550;11.940;2023-03-01T10:35:21;97382.78;;;7.13;45.62
36598;BME280;22607;49.550;11.940;2023-03-01T10:38:07;97374.00;;;7.34;44.96
36598;BME280;22607;49.550;11.940;2023-03-01T10:40:49;97371.13;;;7.07;46.47
36598;BME280;22607;49.550;11.940;2023-03-01T10:43:17;97361.47;;;7.38;46.06
36598;BME280;22607;49.550;11.940;2023-03-01T10:45:43;97368.63;;;7.16;46.90
36598;BME280;22607;49.550;11.940;2023-03-01T10:48:21;97361.44;;;7.57;45.91
36598;BME280;22607;49.550;11.940;2023-03-01T10:51:05;97361.50;;;7.47;46.32
36598;BME280;22607;49.550;11.940;2023-03-01T10:53:33;97360.66;;;7.27;47.36
36598;BME280;22607;49.550;11.940;2023-03-01T10:58:30;97341.56;;;7.07;47.21
36598;BME280;22607;49.550;11.940;2023-03-01T11:01:00;97345.81;;;7.28;46.55
36598;BME280;22607;49.550;11.940;2023-03-01T11:03:33;97330.97;;;7.28;47.13
36598;BME280;22607;49.550;11.940;2023-03-01T11:06:04;97331.19;;;7.55;46.85
36598;BME280;22607;49.550;11.940;2023-03-01T11:08:41;97326.81;;;7.55;47.55
36598;BME280;22607;49.550;11.940;2023-03-01T11:11:19;97321.84;;;7.62;47.04
36598;BME280;22607;49.550;11.940;2023-03-01T11:13:58;97311.91;;;7.66;46.86
36598;BME280;22607;49.550;11.940;2023-03-01T11:16:29;97323.09;;;7.48;47.44
36598;BME280;22607;49.550;11.940;2023-03-01T11:19:07;97324.09;;;7.27;46.89
36598;BME280;22607;49.550;11.940;2023-03-01T11:24:12;97304.66;;;7.49;47.65
36598;BME280;22607;49.550;11.940;2023-03-01T11:26:43;97314.19;;;7.31;47.97
36598;BME280;22607;49.550;11.940;2023-03-01T11:29:18;97304.00;;;7.47;49.04
36598;BME280;22607;49.550;11.940;2023-03-01T11:31:49;97304.13;;;7.46;48.03
36598;BME280;22607;49.550;11.940;2023-03-01T11:34:38;97298.91;;;7.84;47.44
36598;BME280;22607;49.550;11.940;2023-03-01T11:37:16;97283.66;;;7.79;47.36
36598;BME280;22607;49.550;11.940;2023-03-01T11:43:01;97269.63;;;7.70;47.67
36598;BME280;22607;49.550;11.940;2023-03-01T11:45:39;97264.19;;;7.64;48.73
36598;BME280;22607;49.550;11.940;2023-03-01T11:48:44;97260.28;;;8.06;48.19
36598;BME280;22607;49.550;11.940;2023-03-01T11:51:35;97258.97;;;7.92;47.56
36598;BME280;22607;49.550;11.940;2023-03-01T11:59:58;97268.72;;;7.61;49.00
36598;BME280;22607;49.550;11.940;2023-03-01T12:02:45;97257.13;;;7.74;47.64
36598;BME280;22607;49.550;11.940;2023-03-01T12:05:24;97257.69;;;7.68;48.78
36598;BME280;22607;49.550;11.940;2023-03-01T12:11:11;97256.03;;;7.67;50.17
36598;BME280;22607;49.550;11.940;2023-03-01T12:13:51;97246.34;;;7.77;49.25
36598;BME280;22607;49.550;11.940;2023-03-01T12:22:31;97231.53;;;7.68;48.53
36598;BME280;22607;49.550;11.940;2023-03-01T12:25:21;97238.94;;;7.82;49.62
36598;BME280;22607;49.550;11.940;2023-03-01T12:30:39;97224.28;;;7.90;49.51
36598;BME280;22607;49.550;11.940;2023-03-01T12:33:35;97223.53;;;7.79;49.86
36598;BME280;22607;49.550;11.940;2023-03-01T12:49:52;97196.13;;;8.01;49.38
36598;BME280;22607;49.550;11.940;2023-03-01T12:52:35;97195.56;;;8.08;49.97
36598;BME280;22607;49.550;11.940;2023-03-01T12:55:09;97199.81;;;8.09;48.25
36598;BME280;22607;49.550;11.940;2023-03-01T13:01:07;97194.38;;;7.74;49.86
36598;BME280;22607;49.550;11.940;2023-03-01T13:09:29;97186.31;;;7.57;50.51
36598;BME280;22607;49.550;11.940;2023-03-01T13:11:57;97197.81;;;7.37;50.16
36598;BME280;22607;49.550;11.940;2023-03-01T13:16:54;97181.16;;;7.75;49.63
36598;BME280;22607;49.550;11.940;2023-03-01T13:19:25;97190.66;;;7.95;49.05
36598;BME280;22607;49.550;11.940;2023-03-01T13:21:56;97179.59;;;7.83;50.10
36598;BME280;22607;49.550;11.940;2023-03-01T13:24:42;97178.94;;;7.81;49.28
36598;BME280;22607;49.550;11.940;2023-03-01T13:27:11;97174.47;;;7.91;49.82
36598;BME280;22607;49.550;11.940;2023-03-01T13:32:34;97186.25;;;7.39;51.46
36598;BME280;22607;49.550;11.940;2023-03-01T13:37:45;97184.13;;;8.27;48.81
36598;BME280;22607;49.550;11.940;2023-03-01T13:42:44;97171.78;;;8.01;50.27
36598;BME280;22607;49.550;11.940;2023-03-01T13:45:40;97175.69;;;8.15;49.69
36598;BME280;22607;49.550;11.940;2023-03-01T13:48:23;97175.44;;;8.08;49.48
36598;BME280;22607;49.550;11.940;2023-03-01T13:50:54;97184.53;;;7.86;51.14
36598;BME280;22607;49.550;11.940;2023-03-01T13:53:25;97191.06;;;7.72;50.32
36598;BME280;22607;49.550;11.940;2023-03-01T13:55:56;97185.72;;;8.20;49.57
36598;BME280;22607;49.550;11.940;2023-03-01T13:58:33;97173.84;;;7.97;50.00
36598;BME280;22607;49.550;11.940;2023-03-01T14:01:04;97185.44;;;7.95;49.92
36598;BME280;22607;49.550;11.940;2023-03-01T14:03:33;97183.59;;;8.05;50.59
36598;BME280;22607;49.550;11.940;2023-03-01T14:06:16;97186.13;;;7.97;50.37
36598;BME280;22607;49.550;11.940;2023-03-01T14:08:48;97178.44;;;8.13;49.60
36598;BME280;22607;49.550;11.940;2023-03-01T14:16:52;97173.34;;;7.94;51.08
36598;BME280;22607;49.550;11.940;2023-03-01T14:19:26;97178.59;;;7.66;51.19
36598;BME280;22607;49.550;11.940;2023-03-01T14:24:34;97175.34;;;8.00;50.44
36598;BME280;22607;49.550;11.940;2023-03-01T14:27:03;97178.78;;;7.54;50.51
36598;BME280;22607;49.550;11.940;2023-03-01T14:29:36;97169.28;;;7.81;50.43
36598;BME280;22607;49.550;11.940;2023-03-01T14:32:18;97183.47;;;7.79;50.19
36598;BME280;22607;49.550;11.940;2023-03-01T14:34:49;97180.56;;;7.82;51.13
36598;BME280;22607;49.550;11.940;2023-03-01T14:37:28;97189.91;;;7.84;50.14
36598;BME280;22607;49.550;11.940;2023-03-01T14:40:01;97184.31;;;7.79;50.65